Mc Allen Miller International Airport
KMFE : now visible

Airfield :











YOU CAN JOIN US ON...

 
LOGIN :

Register | Disclaimer

   EN    FR    IT 

 









Legend :    VFR   Marginal VFR   IFR   Intensive IFR   Very Intensive IFR
Visi :
Ceiling :
>= 8 km
>= 3000ft
5 to 8 km
1000 to 3000 ft
1500m to 5 km
500 to 1000 ft
800 to 1500m
200 to 500 ft
< 800m
< 200 ft
Symbols :   Thunderstorms  Fog  Heavy snow  Heavy precipitations  Wind > 20 kt






- Airport Elevation : 107 ft
- IATA code : MFE


KMFE - Mc Allen Miller International

CURRENT METAR :
  • 081953Z 16013G19KT 10SM OVC036 28/17 A2994 RMK AO2 SLP137 T02780172

EXPIRED METARs :
  • 081853Z 15013G22KT 10SM OVC034 26/17 A2998 RMK AO2 SLP150 T02610167
  • 081753Z 17013G19KT 10SM BKN030 26/17 A3003 RMK AO2 SLP167 T02560172 10261 20133 58014
  • 081741Z 16013G21KT 10SM BKN028 25/17 A3004 RMK AO2 T02500167

TAF KMFE
Valid from the 08 at 18:00 until the 09 at 18:00 UTC


081751Z 0818/0918 16013G21KT P6SM BKN028
FM082100 15009KT P6SM SCT250
FM090600 16010KT 5SM BR SCT250
FM091200 15010KT 4SM BR BKN015
FM091500 16010KT 4SM BR OVC250



MET'MAP, your aeronautical weather chart ! - Copyright ORBIFLY December 2007 - Disclaimer

ORBIFLY MET'MAP TEAM :

Programming & Development : Alexandra Zaïnal
Concept & original design : Baudouin d'Aumeries
Assistance for programming : Marc-Olivier Méhu
Technical & hardware support : Manuel Goepfert

Contact : metmap@orbifly.com




SOURCES & CREDITS :

   NOAA       Earth
Advisory